Time;durP1;ratioP1;P1;durP2;ratioP2;P2;SDS_P1;SDS_P2;PMS_P1;PMS_P2;Temp;Humidity;BMP_temperature;BMP_pressure;BME280_temperature;BME280_humidity;BME280_pressure;Samples;Min_cycle;Max_cycle;Signal;HPM_P1;HPM_P2
2022/10/18 00:00:56;;;;;;;0.00;0.00;;;;;;;16.01;100.00;101350.53;5030774;28;20629;-74
2022/10/18 00:03:21;;;;;;;7.67;2.37;;;;;;;15.96;100.00;101355.41;5014115;28;20212;-73
2022/10/18 00:05:48;;;;;;;2.00;1.70;;;;;;;15.92;100.00;101355.25;5011086;28;20180;-74
2022/10/18 00:08:13;;;;;;;0.83;0.83;;;;;;;15.88;100.00;101358.94;5010916;28;20176;-73
2022/10/18 00:10:39;;;;;;;0.97;0.97;;;;;;;15.80;100.00;101363.34;5010509;28;20550;-73
2022/10/18 00:13:04;;;;;;;0.00;0.00;;;;;;;15.76;100.00;101365.09;5011072;28;20511;-74
2022/10/18 00:15:30;;;;;;;0.77;0.73;;;;;;;15.71;100.00;101355.06;5010955;28;20579;-75
2022/10/18 00:17:55;;;;;;;1.33;1.23;;;;;;;15.66;100.00;101358.00;5010658;28;20173;-73
2022/10/18 00:20:20;;;;;;;0.40;0.40;;;;;;;15.63;100.00;101353.13;5010828;28;20605;-74
2022/10/18 00:22:46;;;;;;;1.00;0.97;;;;;;;15.60;100.00;101355.69;5010703;28;20205;-74
2022/10/18 00:25:11;;;;;;;0.20;0.20;;;;;;;15.58;100.00;101358.75;5010766;28;20529;-74
2022/10/18 00:27:36;;;;;;;1.23;1.13;;;;;;;15.58;100.00;101366.19;5010704;28;20176;-74
2022/10/18 00:30:03;;;;;;;1.87;1.30;;;;;;;15.61;100.00;101368.34;5010698;28;20181;-73
2022/10/18 00:32:28;;;;;;;0.27;0.27;;;;;;;15.59;100.00;101370.56;5010619;28;20267;-73
2022/10/18 00:34:54;;;;;;;0.77;0.77;;;;;;;15.57;100.00;101362.63;5010767;28;20604;-74
2022/10/18 00:37:19;;;;;;;1.63;1.57;;;;;;;15.60;100.00;101362.03;5010469;28;20176;-74
2022/10/18 00:39:44;;;;;;;3.47;3.20;;;;;;;15.61;100.00;101357.31;5010877;28;20176;-75
2022/10/18 00:42:18;;;;;;;3.00;2.80;;;;;;;15.61;100.00;101357.31;5010400;28;20176;-74
2022/10/18 00:44:43;;;;;;;1.50;1.47;;;;;;;15.60;100.00;101355.69;5010803;28;20200;-74
2022/10/18 00:47:11;;;;;;;7.23;1.97;;;;;;;15.57;100.00;101354.38;5010409;28;20239;-74
2022/10/18 00:49:41;;;;;;;13.03;2.30;;;;;;;15.57;100.00;101365.41;5010669;28;20315;-74
2022/10/18 00:52:21;;;;;;;1.07;0.80;;;;;;;15.57;100.00;101361.84;5010628;28;20208;-75
2022/10/18 00:54:48;;;;;;;2.10;2.00;;;;;;;15.54;100.00;101359.72;5010532;28;20617;-75
2022/10/18 00:57:14;;;;;;;1.77;1.70;;;;;;;15.53;100.00;101369.94;5010272;28;20659;-75
2022/10/18 00:59:41;;;;;;;1.50;1.50;;;;;;;15.50;100.00;101372.53;5010389;28;20173;-73
2022/10/18 01:02:06;;;;;;;3.53;3.17;;;;;;;15.46;100.00;101366.81;5010466;28;20180;-74
2022/10/18 01:04:32;;;;;;;3.07;2.83;;;;;;;15.46;100.00;101373.16;5011128;28;20560;-74
2022/10/18 01:07:16;;;;;;;2.57;2.40;;;;;;;15.44;100.00;101369.09;5013791;28;20184;-75
2022/10/18 01:10:01;;;;;;;1.80;1.70;;;;;;;15.45;100.00;101381.72;5013878;28;20772;-75
2022/10/18 01:12:46;;;;;;;2.13;2.03;;;;;;;15.44;100.00;101382.88;5013543;28;20188;-74
2022/10/18 01:15:17;;;;;;;5.23;4.73;;;;;;;15.42;100.00;101385.94;5013819;28;20241;-74
2022/10/18 01:17:50;;;;;;;3.30;3.10;;;;;;;15.41;100.00;101383.50;5013634;28;20173;-74
2022/10/18 01:20:46;;;;;;;4.90;4.53;;;;;;;15.38;100.00;101378.66;5013802;28;20222;-74
2022/10/18 01:23:41;;;;;;;3.37;2.20;;;;;;;15.36;100.00;101367.97;5012215;28;20208;-74
2022/10/18 01:26:43;;;;;;;2.90;2.70;;;;;;;15.37;100.00;101372.34;5013548;28;20169;-75
2022/10/18 01:29:30;;;;;;;0.83;0.83;;;;;;;15.37;100.00;101360.50;5013439;28;20183;-74
2022/10/18 01:32:04;;;;;;;0.23;0.20;;;;;;;15.38;100.00;101356.63;5013571;28;20183;-74
2022/10/18 01:34:34;;;;;;;2.30;2.20;;;;;;;15.37;100.00;101355.81;5028661;28;20246;-75
2022/10/18 01:37:02;;;;;;;5.00;1.33;;;;;;;15.33;100.00;101354.81;5013153;28;20176;-74
2022/10/18 01:39:33;;;;;;;0.00;0.00;;;;;;;15.32;100.00;101347.69;5013568;28;20564;-74
2022/10/18 01:42:02;;;;;;;0.57;0.57;;;;;;;15.30;100.00;101336.19;5012910;28;20268;-74
2022/10/18 01:44:31;;;;;;;1.37;1.33;;;;;;;15.29;100.00;101337.31;5013079;28;20208;-74
2022/10/18 01:46:58;;;;;;;2.33;2.23;;;;;;;15.28;100.00;101341.22;5013138;28;20188;-74
2022/10/18 01:49:25;;;;;;;0.87;0.67;;;;;;;15.25;100.00;101341.84;5013186;28;20177;-73
2022/10/18 01:51:51;;;;;;;0.30;0.30;;;;;;;15.27;100.00;101336.84;5013098;28;20222;-74
2022/10/18 01:54:20;;;;;;;0.80;0.80;;;;;;;15.29;100.00;101333.75;5014747;28;20609;-74
2022/10/18 01:56:57;;;;;;;1.27;1.27;;;;;;;15.31;100.00;101337.00;5032050;28;20172;-74
2022/10/18 01:59:31;;;;;;;0.00;0.00;;;;;;;15.37;100.00;101344.00;5032772;28;20160;-73
2022/10/18 02:02:13;;;;;;;0.00;0.00;;;;;;;15.42;100.00;101336.38;5032739;28;20241;-74
2022/10/18 02:04:50;;;;;;;0.00;0.00;;;;;;;15.47;100.00;101336.22;5026639;28;20188;-74
2022/10/18 02:07:31;;;;;;;1.37;1.30;;;;;;;15.43;100.00;101342.69;5030489;28;20548;-73
2022/10/18 02:10:07;;;;;;;0.50;0.50;;;;;;;15.46;100.00;101344.78;5014264;28;20579;-74
2022/10/18 02:12:33;;;;;;;0.00;0.00;;;;;;;15.50;100.00;101337.53;5012743;28;20531;-74
2022/10/18 02:15:00;;;;;;;0.00;0.00;;;;;;;15.54;100.00;101344.00;5012668;28;20175;-75
2022/10/18 02:17:28;;;;;;;0.67;0.67;;;;;;;15.63;100.00;101338.56;5011477;28;20168;-74
2022/10/18 02:19:55;;;;;;;2.00;1.97;;;;;;;15.62;100.00;101339.66;5027745;28;20669;-74
2022/10/18 02:22:25;;;;;;;0.00;0.00;;;;;;;15.57;100.00;101326.81;5012444;28;20183;-74
2022/10/18 02:24:55;;;;;;;0.00;0.00;;;;;;;15.62;100.00;101321.22;5012597;28;20647;-75
2022/10/18 02:27:21;;;;;;;0.00;0.00;;;;;;;15.68;100.00;101319.09;5012208;28;20176;-74
2022/10/18 02:29:47;;;;;;;0.00;0.00;;;;;;;15.68;100.00;101319.09;5012335;28;20168;-74
2022/10/18 02:32:29;;;;;;;0.00;0.00;;;;;;;15.56;100.00;101313.38;5012485;28;20683;-74
2022/10/18 02:35:03;;;;;;;0.00;0.00;;;;;;;15.68;100.00;101308.06;5012308;28;20172;-74
2022/10/18 02:37:32;;;;;;;0.10;0.10;;;;;;;15.63;100.00;101309.06;5012083;28;20196;-74
2022/10/18 02:39:58;;;;;;;0.00;0.00;;;;;;;15.53;100.00;101314.03;5012084;28;20420;-74
2022/10/18 02:42:23;;;;;;;0.00;0.00;;;;;;;15.51;100.00;101306.09;5011939;28;20644;-74
2022/10/18 02:44:48;;;;;;;0.00;0.00;;;;;;;15.51;100.00;101305.28;5012143;28;20219;-74
2022/10/18 02:47:14;;;;;;;0.00;0.00;;;;;;;15.57;100.00;101306.75;5011857;28;20204;-75
2022/10/18 02:49:39;;;;;;;0.00;0.00;;;;;;;15.49;100.00;101316.63;5012047;28;20168;-73
2022/10/18 02:52:04;;;;;;;0.00;0.00;;;;;;;15.36;100.00;101315.66;5011911;28;20165;-75
2022/10/18 02:54:30;;;;;;;0.10;0.10;;;;;;;15.28;100.00;101310.13;5011798;28;20169;-74
2022/10/18 02:56:55;;;;;;;0.00;0.00;;;;;;;15.24;100.00;101318.22;5011661;28;20168;-73
2022/10/18 02:59:20;;;;;;;1.77;1.70;;;;;;;15.24;100.00;101320.97;5011920;28;20176;-74
2022/10/18 03:01:46;;;;;;;0.00;0.00;;;;;;;15.27;100.00;101316.75;5012148;28;20624;-73
2022/10/18 03:04:11;;;;;;;1.80;0.87;;;;;;;15.23;100.00;101321.28;5011540;28;20219;-73
2022/10/18 03:06:36;;;;;;;0.60;0.60;;;;;;;15.14;100.00;101319.31;5011394;28;20186;-74
2022/10/18 03:09:03;;;;;;;2.13;2.03;;;;;;;15.07;100.00;101320.94;5026797;28;20172;-75
2022/10/18 03:11:28;;;;;;;2.93;0.77;;;;;;;14.98;100.00;101312.66;5011463;28;20238;-74
2022/10/18 03:13:53;;;;;;;1.33;1.23;;;;;;;14.91;100.00;101314.25;5011589;28;20259;-74
2022/10/18 03:16:19;;;;;;;1.10;1.10;;;;;;;14.89;100.00;101320.88;5011349;28;20173;-74
2022/10/18 03:18:44;;;;;;;11.37;3.73;;;;;;;14.90;100.00;101310.69;5026502;28;20180;-74
2022/10/18 03:21:09;;;;;;;0.57;0.57;;;;;;;14.93;100.00;101303.75;5011431;28;20177;-74
2022/10/18 03:23:35;;;;;;;4.50;4.03;;;;;;;14.98;100.00;101295.31;5011307;28;20203;-73
2022/10/18 03:26:00;;;;;;;0.20;0.20;;;;;;;14.98;100.00;101285.13;5011231;28;20172;-74
2022/10/18 03:28:26;;;;;;;0.00;0.00;;;;;;;14.97;100.00;101290.94;5011050;28;20173;-74
2022/10/18 03:30:51;;;;;;;2.07;1.67;;;;;;;14.95;100.00;101296.78;5011219;28;20185;-73
2022/10/18 03:33:16;;;;;;;0.70;0.70;;;;;;;14.96;100.00;101289.34;5011559;28;20173;-73
2022/10/18 03:35:41;;;;;;;0.93;0.50;;;;;;;14.96;100.00;101289.34;5010926;28;20260;-73
2022/10/18 03:38:07;;;;;;;2.13;2.03;;;;;;;14.94;100.00;101289.66;5011165;28;20188;-73
2022/10/18 03:40:32;;;;;;;4.13;3.13;;;;;;;14.92;100.00;101286.41;5011177;28;20227;-74
2022/10/18 03:42:58;;;;;;;1.87;1.77;;;;;;;14.89;100.00;101279.59;5011093;28;20537;-73
2022/10/18 03:45:23;;;;;;;1.23;1.23;;;;;;;14.87;100.00;101270.03;5023674;28;20298;-74
2022/10/18 03:47:48;;;;;;;1.53;1.43;;;;;;;14.84;100.00;101274.25;5030572;28;20270;-74
2022/10/18 03:50:14;;;;;;;8.07;3.27;;;;;;;14.82;100.00;101276.50;5030632;28;20168;-73
2022/10/18 03:52:39;;;;;;;4.03;2.20;;;;;;;14.81;100.00;101280.41;5030832;28;20180;-74
2022/10/18 03:55:05;;;;;;;2.47;2.27;;;;;;;14.79;100.00;101270.84;5030661;28;20627;-73
2022/10/18 03:57:30;;;;;;;2.97;2.70;;;;;;;14.77;100.00;101256.59;5030519;28;20179;-73
2022/10/18 03:59:56;;;;;;;6.17;2.67;;;;;;;14.75;100.00;101247.84;5030726;28;20168;-74
2022/10/18 04:02:21;;;;;;;2.17;2.07;;;;;;;14.76;100.00;101254.97;5030576;28;20203;-74
2022/10/18 04:04:46;;;;;;;2.70;2.53;;;;;;;14.76;100.00;101252.22;5030435;28;20248;-74
2022/10/18 04:07:11;;;;;;;1.33;1.33;;;;;;;14.78;100.00;101252.72;5030357;28;20269;-73
2022/10/18 04:09:37;;;;;;;1.70;1.60;;;;;;;14.77;100.00;101254.66;5030631;28;20842;-74
2022/10/18 04:12:02;;;;;;;0.63;0.63;;;;;;;14.78;100.00;101260.97;5030436;28;20182;-74
2022/10/18 04:14:28;;;;;;;0.73;0.63;;;;;;;14.76;100.00;101257.72;5030522;28;20637;-74
2022/10/18 04:16:53;;;;;;;1.07;1.07;;;;;;;14.73;100.00;101258.34;5030371;28;20175;-73
2022/10/18 04:19:18;;;;;;;0.30;0.30;;;;;;;14.74;100.00;101254.47;5030446;28;20198;-73
2022/10/18 04:21:43;;;;;;;0.30;0.30;;;;;;;14.77;100.00;101248.34;5030679;28;20176;-73
2022/10/18 04:24:09;;;;;;;0.13;0.13;;;;;;;14.79;100.00;101249.66;5029085;28;20683;-75
2022/10/18 04:26:34;;;;;;;0.00;0.00;;;;;;;14.83;100.00;101256.13;5030292;28;20172;-73
2022/10/18 04:28:59;;;;;;;1.23;1.23;;;;;;;14.77;100.00;101262.09;5030493;28;20251;-73
2022/10/18 04:31:25;;;;;;;3.73;1.37;;;;;;;14.72;100.00;101267.72;5030355;28;20215;-73
2022/10/18 04:33:50;;;;;;;0.60;0.60;;;;;;;14.70;100.00;101268.06;5030298;28;20189;-74
2022/10/18 04:36:15;;;;;;;0.00;0.00;;;;;;;14.71;100.00;101266.13;5030287;28;20164;-74
2022/10/18 04:38:40;;;;;;;0.00;0.00;;;;;;;14.73;100.00;101266.59;5030287;28;20214;-73
2022/10/18 04:41:06;;;;;;;0.20;0.20;;;;;;;14.70;100.00;101273.56;5033401;28;20678;-74
2022/10/18 04:43:31;;;;;;;0.40;0.40;;;;;;;14.66;100.00;101264.31;5033950;28;20271;-73
2022/10/18 04:45:57;;;;;;;0.00;0.00;;;;;;;14.70;100.00;101270.00;5033830;28;20176;-74
2022/10/18 04:48:22;;;;;;;0.63;0.63;;;;;;;14.66;100.00;101260.78;5033859;28;20604;-74
2022/10/18 04:50:48;;;;;;;0.77;0.77;;;;;;;14.65;100.00;101267.41;5033874;28;20191;-73
2022/10/18 04:53:15;;;;;;;0.97;0.93;;;;;;;14.66;100.00;101267.06;5033955;28;20211;-73
2022/10/18 04:55:50;;;;;;;0.37;0.37;;;;;;;14.64;100.00;101257.53;5033702;28;20259;-74
2022/10/18 04:58:16;;;;;;;0.63;0.63;;;;;;;14.65;100.00;101261.91;5033710;28;20266;-73
2022/10/18 05:00:42;;;;;;;0.00;0.00;;;;;;;14.68;100.00;101264.00;5033718;28;20178;-73
2022/10/18 05:03:11;;;;;;;0.00;0.00;;;;;;;14.75;100.00;101267.91;5015780;28;20200;-75
2022/10/18 05:05:36;;;;;;;0.00;0.00;;;;;;;14.73;100.00;101259.16;5033746;28;20627;-73
2022/10/18 05:08:02;;;;;;;0.00;0.00;;;;;;;14.80;100.00;101270.53;5033489;28;20171;-75
2022/10/18 05:10:27;;;;;;;0.00;0.00;;;;;;;14.73;100.00;101267.41;5034045;28;20183;-75
2022/10/18 05:12:52;;;;;;;1.63;1.60;;;;;;;14.73;100.00;101266.59;5033312;28;20180;-73
2022/10/18 05:15:17;;;;;;;0.10;0.10;;;;;;;14.70;100.00;101278.25;5033621;28;20639;-74
2022/10/18 05:17:43;;;;;;;0.77;0.77;;;;;;;14.63;100.00;101278.72;5033205;28;20314;-75
2022/10/18 05:20:09;;;;;;;0.00;0.00;;;;;;;14.63;100.00;101275.16;5033513;28;20173;-73
2022/10/18 05:22:34;;;;;;;1.80;1.63;;;;;;;14.62;100.00;101279.84;5033322;28;20533;-74
2022/10/18 05:24:59;;;;;;;1.03;0.97;;;;;;;14.60;100.00;101273.84;5033358;28;20538;-74
2022/10/18 05:27:24;;;;;;;1.13;1.10;;;;;;;14.56;100.00;101284.66;5033103;28;20176;-75
2022/10/18 05:29:50;;;;;;;1.20;1.20;;;;;;;14.55;100.00;101276.75;5033359;28;20176;-75
2022/10/18 05:32:15;;;;;;;0.50;0.50;;;;;;;14.56;100.00;101281.09;5032003;28;20180;-74
2022/10/18 05:34:40;;;;;;;1.23;0.53;;;;;;;14.53;100.00;101276.25;5033181;28;20180;-75
2022/10/18 05:37:06;;;;;;;0.87;0.87;;;;;;;14.50;100.00;101285.13;5032990;28;20180;-74
2022/10/18 05:39:31;;;;;;;0.03;0.03;;;;;;;14.48;100.00;101282.72;5033164;28;20292;-72
2022/10/18 05:41:57;;;;;;;0.00;0.00;;;;;;;14.48;100.00;101288.22;5032941;28;20180;-74
2022/10/18 05:44:22;;;;;;;2.23;1.57;;;;;;;14.50;100.00;101288.69;5032952;28;20241;-75
2022/10/18 05:46:47;;;;;;;0.10;0.10;;;;;;;14.53;100.00;101290.00;5033072;28;20184;-75
2022/10/18 05:49:13;;;;;;;1.80;1.70;;;;;;;14.54;100.00;101288.88;5030451;28;20172;-75
2022/10/18 05:51:38;;;;;;;1.50;1.00;;;;;;;14.55;100.00;101288.53;5013235;28;20790;-76
2022/10/18 05:54:04;;;;;;;0.73;0.73;;;;;;;14.57;100.00;101297.28;5013118;28;20648;-74
2022/10/18 05:56:29;;;;;;;0.80;0.80;;;;;;;14.58;100.00;101292.59;5012891;28;20663;-74
2022/10/18 05:58:54;;;;;;;0.20;0.20;;;;;;;14.61;100.00;101297.50;5018678;28;20270;-73
2022/10/18 06:01:20;;;;;;;0.03;0.03;;;;;;;14.65;100.00;101309.47;5018762;28;20645;-74
2022/10/18 06:03:46;;;;;;;0.40;0.40;;;;;;;14.66;100.00;101300.09;5012611;28;20212;-75
2022/10/18 06:06:13;;;;;;;0.83;0.83;;;;;;;14.67;100.00;101298.16;5012514;28;20184;-75
2022/10/18 06:08:39;;;;;;;0.17;0.17;;;;;;;14.69;100.00;101307.69;5013131;28;20211;-75
2022/10/18 06:11:09;;;;;;;0.13;0.13;;;;;;;14.73;100.00;101294.09;5012527;28;20530;-75
2022/10/18 06:13:39;;;;;;;1.90;1.13;;;;;;;14.75;100.00;101306.41;5012608;28;20179;-75
2022/10/18 06:16:05;;;;;;;0.43;0.43;;;;;;;14.73;100.00;101305.91;5012089;28;20187;-75
2022/10/18 06:18:30;;;;;;;0.87;0.87;;;;;;;14.73;100.00;101303.16;5012046;28;20168;-75
2022/10/18 06:20:57;;;;;;;0.00;0.00;;;;;;;14.77;100.00;101317.94;5012150;28;20264;-75
2022/10/18 06:23:23;;;;;;;0.07;0.07;;;;;;;14.78;100.00;101319.56;5012027;28;20290;-77
2022/10/18 06:25:48;;;;;;;0.00;0.00;;;;;;;14.79;100.00;101317.63;5011642;28;20180;-75
2022/10/18 06:28:14;;;;;;;0.00;0.00;;;;;;;14.83;100.00;101313.09;5012120;28;20183;-76
2022/10/18 06:30:39;;;;;;;0.00;0.00;;;;;;;14.86;100.00;101316.00;5011912;28;20177;-75
2022/10/18 06:33:04;;;;;;;0.20;0.20;;;;;;;14.93;100.00;101312.81;5011677;28;20268;-74
2022/10/18 06:35:29;;;;;;;1.50;1.50;;;;;;;14.98;100.00;101314.59;5011857;28;20271;-76
2022/10/18 06:37:56;;;;;;;0.00;0.00;;;;;;;15.00;100.00;101315.88;5011415;28;20196;-75
2022/10/18 06:40:22;;;;;;;1.03;1.03;;;;;;;15.03;100.00;101312.47;5011717;28;20173;-76
2022/10/18 06:42:47;;;;;;;0.60;0.60;;;;;;;15.00;100.00;101317.81;5011607;28;20555;-75
2022/10/18 06:45:14;;;;;;;1.80;1.80;;;;;;;14.98;100.00;101318.16;5011556;28;20177;-76
2022/10/18 06:47:39;;;;;;;0.47;0.40;;;;;;;14.95;100.00;101317.97;5011353;28;20173;-74
2022/10/18 06:50:05;;;;;;;0.87;0.87;;;;;;;14.93;100.00;101315.56;5011513;28;20185;-78
2022/10/18 06:52:31;;;;;;;0.73;0.73;;;;;;;15.46;100.00;101337.34;5011357;28;20205;-71
2022/10/18 06:54:56;;;;;;;0.00;0.00;;;;;;;15.47;100.00;101344.47;5011528;28;20176;-71
2022/10/18 06:57:21;;;;;;;0.00;0.00;;;;;;;15.47;100.00;101349.97;5011180;28;20179;-71
2022/10/18 06:59:47;;;;;;;0.00;0.00;;;;;;;15.47;100.00;101357.44;5011451;28;20532;-71
2022/10/18 07:02:18;;;;;;;0.10;0.10;;;;;;;15.38;100.00;101364.88;5010750;28;20177;-70
2022/10/18 07:04:43;;;;;;;0.20;0.20;;;;;;;15.34;100.00;101366.66;5011045;28;20215;-71
2022/10/18 07:07:09;;;;;;;1.60;0.77;;;;;;;15.23;100.00;101359.84;5010843;28;20177;-70
2022/10/18 07:09:34;;;;;;;2.07;1.17;;;;;;;15.19;100.00;101370.69;5011188;28;20679;-73
2022/10/18 07:11:59;;;;;;;2.83;2.73;;;;;;;15.22;100.00;101367.28;5011008;28;20200;-72
2022/10/18 07:14:25;;;;;;;0.57;0.57;;;;;;;15.28;100.00;101362.44;5011109;28;20215;-73
2022/10/18 07:16:50;;;;;;;0.00;0.00;;;;;;;15.42;100.00;101365.84;5010650;28;20628;-72
2022/10/18 07:19:15;;;;;;;1.00;0.73;;;;;;;15.45;100.00;101363.25;5011018;28;20231;-73
2022/10/18 07:21:41;;;;;;;0.00;0.00;;;;;;;15.51;100.00;101366.69;5011024;28;20181;-73
2022/10/18 07:24:06;;;;;;;0.97;0.97;;;;;;;15.53;100.00;101374.63;5010981;28;20208;-74
2022/10/18 07:26:33;;;;;;;0.00;0.00;;;;;;;15.47;100.00;101369.25;5010581;28;20177;-75
2022/10/18 07:29:10;;;;;;;0.10;0.10;;;;;;;15.54;100.00;101371.56;5010977;28;20588;-79
2022/10/18 07:31:37;;;;;;;0.00;0.00;;;;;;;15.62;100.00;101373.56;5010745;28;20176;-77
2022/10/18 07:34:04;;;;;;;1.17;1.17;;;;;;;15.61;100.00;101371.09;5010753;28;20196;-76
2022/10/18 07:36:30;;;;;;;1.13;1.13;;;;;;;15.49;100.00;101377.22;5010432;28;20180;-73
2022/10/18 07:38:55;;;;;;;0.00;0.00;;;;;;;15.53;100.00;101371.88;5010876;28;20187;-73
2022/10/18 07:41:21;;;;;;;0.10;0.10;;;;;;;15.52;100.00;101381.28;5010726;28;20644;-72
2022/10/18 07:43:49;;;;;;;0.70;0.70;;;;;;;15.53;100.00;101372.69;5010539;28;20231;-74
2022/10/18 07:46:16;;;;;;;0.33;0.33;;;;;;;15.58;100.00;101375.28;5010679;28;20180;-73
2022/10/18 07:48:42;;;;;;;1.23;1.23;;;;;;;15.61;100.00;101377.41;5011234;28;20537;-73
2022/10/18 07:51:08;;;;;;;0.20;0.20;;;;;;;15.63;100.00;101382.63;5011122;28;20184;-72
2022/10/18 07:53:33;;;;;;;0.87;0.87;;;;;;;15.57;100.00;101375.59;5012457;28;20189;-73
2022/10/18 07:56:10;;;;;;;0.30;0.30;;;;;;;15.57;100.00;101381.13;5010663;28;20184;-72
2022/10/18 07:58:35;;;;;;;0.07;0.07;;;;;;;15.57;100.00;101372.84;5011014;28;20611;-72
2022/10/18 08:01:02;;;;;;;1.97;1.83;;;;;;;15.55;100.00;101373.19;5011270;28;20180;-72
2022/10/18 08:03:28;;;;;;;1.60;1.50;;;;;;;15.55;100.00;101378.69;5010792;28;20214;-72
2022/10/18 08:05:54;;;;;;;4.23;1.60;;;;;;;15.52;100.00;101382.09;5010843;28;20267;-72
2022/10/18 08:08:21;;;;;;;2.00;1.90;;;;;;;15.54;100.00;101371.56;5010927;28;20200;-72
2022/10/18 08:10:46;;;;;;;4.67;3.43;;;;;;;15.56;100.00;101374.78;5010651;28;20227;-72
2022/10/18 08:13:11;;;;;;;1.43;1.03;;;;;;;15.65;100.00;101369.34;5026073;28;20200;-72
2022/10/18 08:15:40;;;;;;;0.53;0.53;;;;;;;15.59;100.00;101370.56;5033183;28;20180;-72
2022/10/18 08:18:05;;;;;;;2.37;2.07;;;;;;;15.60;100.00;101370.28;5034434;28;20179;-72
2022/10/18 08:20:32;;;;;;;0.10;0.10;;;;;;;15.68;100.00;101374.19;5034131;28;20172;-72
2022/10/18 08:22:57;;;;;;;0.30;0.30;;;;;;;15.71;100.00;101371.59;5032704;28;20597;-72
2022/10/18 08:25:23;;;;;;;0.10;0.10;;;;;;;15.79;100.00;101367.25;5033888;28;20176;-72
2022/10/18 08:27:48;;;;;;;0.20;0.20;;;;;;;15.87;100.00;101363.66;5033720;28;20180;-73
2022/10/18 08:30:14;;;;;;;0.73;0.73;;;;;;;15.83;100.00;101368.19;5016180;28;20176;-72
2022/10/18 08:32:39;;;;;;;2.13;1.07;;;;;;;15.94;100.00;101374.22;5033891;28;20168;-72
2022/10/18 08:35:05;;;;;;;2.20;2.00;;;;;;;15.99;100.00;101382.31;5033903;28;20382;-72
2022/10/18 08:37:31;;;;;;;1.03;1.03;;;;;;;15.98;100.00;101380.69;5033979;28;20171;-72
2022/10/18 08:39:56;;;;;;;2.57;2.47;;;;;;;16.10;100.00;101388.31;5033677;28;20172;-73
2022/10/18 08:42:44;;;;;;;1.83;1.00;;;;;;;16.17;100.00;101388.63;5033712;28;20565;-72
2022/10/18 08:45:11;;;;;;;2.13;2.03;;;;;;;16.17;100.00;101381.16;5033656;28;20180;-72
2022/10/18 08:47:42;;;;;;;2.53;2.37;;;;;;;16.15;100.00;101379.84;5033285;28;20172;-72
2022/10/18 08:50:24;;;;;;;3.27;2.97;;;;;;;16.08;100.00;101382.31;5033492;28;20180;-72
2022/10/18 08:53:18;;;;;;;0.97;0.97;;;;;;;16.21;100.00;101395.13;5033563;28;20179;-73
2022/10/18 08:55:53;;;;;;;1.13;1.13;;;;;;;16.18;100.00;101404.00;5033380;28;20176;-72
2022/10/18 08:58:21;;;;;;;1.43;1.43;;;;;;;16.18;100.00;101404.00;5033420;28;20191;-72
2022/10/18 09:01:28;;;;;;;9.50;3.53;;;;;;;16.19;100.00;101405.63;5033215;28;20218;-72
2022/10/18 09:04:21;;;;;;;3.33;3.03;;;;;;;16.09;100.00;101408.75;5032921;28;20301;-72
2022/10/18 09:07:00;;;;;;;0.43;0.43;;;;;;;16.12;100.00;101408.09;5032944;28;20583;-72
2022/10/18 09:09:37;;;;;;;4.73;4.07;;;;;;;16.00;100.00;101414.25;5033293;28;20180;-72
2022/10/18 09:12:11;;;;;;;0.53;0.53;;;;;;;16.08;100.00;101413.44;5032984;28;20211;-73
2022/10/18 09:14:44;;;;;;;5.67;5.30;;;;;;;16.18;100.00;101423.31;5033072;28;20168;-72
2022/10/18 09:17:28;;;;;;;7.00;6.33;;;;;;;16.09;100.00;101423.34;5032955;28;20207;-72
2022/10/18 09:20:20;;;;;;;3.60;3.33;;;;;;;16.14;100.00;101422.34;5033013;28;20656;-72
2022/10/18 09:22:54;;;;;;;4.07;3.77;;;;;;;16.16;100.00;101418.13;5032867;28;20731;-72
2022/10/18 09:25:31;;;;;;;6.40;4.70;;;;;;;16.21;100.00;101411.66;5032307;28;20241;-72
2022/10/18 09:28:25;;;;;;;5.70;5.30;;;;;;;16.25;100.00;101415.38;5032811;28;20176;-72
2022/10/18 09:31:02;;;;;;;6.50;5.93;;;;;;;16.23;100.00;101428.69;5032953;28;20176;-72
2022/10/18 09:33:53;;;;;;;4.00;3.67;;;;;;;16.17;100.00;101433.53;5032726;28;20518;-72
2022/10/18 09:36:48;;;;;;;1.80;1.70;;;;;;;16.22;100.00;101441.66;5032502;28;20534;-72
2022/10/18 09:39:18;;;;;;;3.23;2.93;;;;;;;16.25;100.00;101431.94;5028627;28;20192;-72
2022/10/18 09:42:00;;;;;;;3.47;3.17;;;;;;;16.33;100.00;101440.19;5032681;28;20176;-72
2022/10/18 09:44:40;;;;;;;4.93;4.57;;;;;;;16.24;100.00;101442.16;5032671;28;20214;-72
2022/10/18 09:47:25;;;;;;;3.30;3.10;;;;;;;16.23;100.00;101445.22;5032229;28;20180;-72
2022/10/18 09:49:56;;;;;;;17.80;1.50;;;;;;;16.24;100.00;101444.91;5032498;28;20187;-72
2022/10/18 09:52:38;;;;;;;12.27;3.70;;;;;;;16.32;100.00;101444.06;5032834;28;20176;-72
2022/10/18 09:55:14;;;;;;;0.60;0.60;;;;;;;16.27;100.00;101444.25;5032452;28;20679;-72
2022/10/18 09:57:47;;;;;;;1.67;1.33;;;;;;;16.40;100.00;101444.41;5032003;28;20179;-72
2022/10/18 10:00:33;;;;;;;4.03;2.33;;;;;;;16.18;100.00;101445.38;5032197;28;20172;-72
2022/10/18 10:03:00;;;;;;;1.27;0.60;;;;;;;16.02;100.00;101448.63;5032007;28;20580;-72
2022/10/18 10:05:26;;;;;;;2.37;2.27;;;;;;;16.01;100.00;101443.44;5032118;28;20186;-72
2022/10/18 10:08:00;;;;;;;1.50;1.40;;;;;;;16.15;100.00;101446.03;5032276;28;20266;-72
2022/10/18 10:10:28;;;;;;;1.37;1.30;;;;;;;16.15;100.00;101446.84;5032108;28;20167;-72
2022/10/18 10:13:14;;;;;;;3.83;3.20;;;;;;;16.15;100.00;101437.75;5031554;28;20183;-72
2022/10/18 10:15:50;;;;;;;2.03;1.93;;;;;;;16.12;100.00;101439.22;5031776;28;20266;-71
2022/10/18 10:18:24;;;;;;;2.87;2.67;;;;;;;16.13;100.00;101440.84;5031901;28;20172;-72
2022/10/18 10:20:52;;;;;;;2.63;2.43;;;;;;;16.16;100.00;101450.41;5031845;28;20176;-73
2022/10/18 10:23:29;;;;;;;3.90;3.67;;;;;;;16.16;100.00;101444.91;5031614;28;20609;-71
2022/10/18 10:25:58;;;;;;;5.43;4.20;;;;;;;16.19;100.00;101449.75;5031548;28;20168;-72
2022/10/18 10:28:28;;;;;;;1.80;1.70;;;;;;;16.23;100.00;101445.22;5031760;28;20171;-72
2022/10/18 10:30:53;;;;;;;3.10;2.90;;;;;;;16.21;100.00;101444.75;5031729;28;20254;-72
2022/10/18 10:33:36;;;;;;;2.20;2.00;;;;;;;16.25;100.00;101442.97;5031603;28;20255;-72
2022/10/18 10:36:05;;;;;;;1.60;1.50;;;;;;;16.16;100.00;101439.38;5031326;28;20263;-72
2022/10/18 10:38:31;;;;;;;4.70;4.40;;;;;;;16.01;100.00;101437.91;5030651;28;20207;-72
2022/10/18 10:40:57;;;;;;;4.03;3.83;;;;;;;15.97;100.00;101432.25;5031434;28;20246;-73
2022/10/18 10:43:26;;;;;;;0.93;0.93;;;;;;;15.95;100.00;101441.97;5031386;28;20214;-72
2022/10/18 10:45:59;;;;;;;6.63;3.63;;;;;;;15.93;100.00;101445.06;5031042;28;20697;-72
2022/10/18 10:48:25;;;;;;;3.57;3.37;;;;;;;15.96;100.00;101443.59;5031293;28;20566;-72
2022/10/18 10:51:02;;;;;;;3.90;3.43;;;;;;;15.92;100.00;101440.69;5031323;28;20542;-72
2022/10/18 10:53:42;;;;;;;3.60;3.37;;;;;;;15.92;100.00;101439.88;5031225;28;20186;-72
2022/10/18 10:56:19;;;;;;;3.83;3.50;;;;;;;15.98;100.00;101450.41;5030992;28;20180;-73
2022/10/18 10:59:17;;;;;;;5.07;4.73;;;;;;;15.99;100.00;101446.50;5086596;28;20510;-72
2022/10/18 11:01:46;;;;;;;2.00;1.90;;;;;;;16.03;100.00;101452.19;5087808;28;20239;-73
2022/10/18 11:04:24;;;;;;;0.20;0.10;;;;;;;16.08;100.00;101457.56;5084276;28;20178;-73
2022/10/18 11:07:01;;;;;;;4.43;3.30;;;;;;;16.08;100.00;101454.00;5086640;28;20568;-73
2022/10/18 11:09:35;;;;;;;27.00;2.00;;;;;;;16.12;100.00;101460.47;5088009;28;20210;-73
2022/10/18 11:12:08;;;;;;;5.80;4.00;;;;;;;16.06;100.00;101457.88;5087792;28;20654;-75
2022/10/18 11:14:43;;;;;;;1.20;1.20;;;;;;;16.02;100.00;101445.84;5085923;28;20185;-73
2022/10/18 11:17:14;;;;;;;0.70;0.70;;;;;;;16.11;100.00;101453.34;5087261;28;20228;-73
2022/10/18 11:19:57;;;;;;;0.20;0.20;;;;;;;16.11;100.00;101458.84;5087940;28;20170;-70
2022/10/18 11:22:26;;;;;;;0.67;0.67;;;;;;;16.16;100.00;101450.41;5087737;28;20178;-72
2022/10/18 11:24:52;;;;;;;0.07;0.07;;;;;;;16.14;100.00;101458.19;5088124;28;20174;-71
2022/10/18 11:27:32;;;;;;;2.30;1.37;;;;;;;16.12;100.00;101454.97;5087513;28;20185;-71